createdAt,value
2023-01-10T00:00:08.689Z,5.52
2023-01-10T00:01:17.464Z,5.49
2023-01-10T00:02:18.935Z,5.45
2023-01-10T00:03:20.263Z,5.44
2023-01-10T00:04:21.580Z,5.46
2023-01-10T00:05:22.826Z,5.45
2023-01-10T00:06:24.267Z,5.45
2023-01-10T00:07:25.532Z,5.43
2023-01-10T00:08:26.771Z,5.44
2023-01-10T00:09:28.385Z,5.44
2023-01-10T00:10:32.624Z,5.47
2023-01-10T00:11:33.845Z,5.47
2023-01-10T00:12:35.073Z,5.50
2023-01-10T00:13:37.049Z,5.51
2023-01-10T00:14:38.235Z,5.46
2023-01-10T00:15:39.625Z,5.47
2023-01-10T00:16:40.916Z,5.45
2023-01-10T00:17:42.282Z,5.44
2023-01-10T00:18:43.575Z,5.46
2023-01-10T00:19:44.920Z,5.49
2023-01-10T00:20:46.999Z,5.51
2023-01-10T00:21:48.297Z,5.50
2023-01-10T00:22:49.750Z,5.50
2023-01-10T00:23:51.167Z,5.54
2023-01-10T00:24:52.547Z,5.53
2023-01-10T00:25:54.536Z,5.48
2023-01-10T00:26:55.723Z,5.53
2023-01-10T00:27:56.948Z,5.49
2023-01-10T00:28:59.807Z,5.50
2023-01-10T00:30:00.996Z,5.52
2023-01-10T00:31:02.736Z,5.50
2023-01-10T00:32:04.205Z,5.49
2023-01-10T00:33:05.746Z,5.47
2023-01-10T00:34:07.121Z,5.44
2023-01-10T00:35:11.292Z,5.41
2023-01-10T00:36:12.543Z,5.40
2023-01-10T00:37:14.383Z,5.40
2023-01-10T00:38:15.738Z,5.40
2023-01-10T00:39:17.675Z,5.39
2023-01-10T00:40:19.123Z,5.42
2023-01-10T00:41:20.355Z,5.39
2023-01-10T00:42:21.667Z,5.41
2023-01-10T00:43:23.088Z,5.45
2023-01-10T00:44:24.976Z,5.51
2023-01-10T00:45:26.629Z,5.47
2023-01-10T00:46:27.944Z,5.46
2023-01-10T00:47:29.250Z,5.46
2023-01-10T00:48:30.475Z,5.44
2023-01-10T00:49:31.902Z,5.45
2023-01-10T00:50:34.363Z,5.44
2023-01-10T00:51:35.652Z,5.48
2023-01-10T00:52:36.973Z,5.45
2023-01-10T00:53:39.348Z,5.43
2023-01-10T00:54:40.638Z,5.49
2023-01-10T00:55:42.002Z,5.45
2023-01-10T00:56:43.894Z,5.41
2023-01-10T00:57:46.271Z,5.37
2023-01-10T00:58:47.831Z,5.48
2023-01-10T00:59:49.098Z,5.43
2023-01-10T01:00:50.522Z,5.39
2023-01-10T01:01:52.436Z,5.40
2023-01-10T01:02:53.925Z,5.45
2023-01-10T01:03:55.338Z,5.41
2023-01-10T01:04:56.750Z,5.39
2023-01-10T01:05:58.262Z,5.38
2023-01-10T01:07:00.527Z,5.35
2023-01-10T01:08:01.801Z,5.32
2023-01-10T01:09:03.181Z,5.30
2023-01-10T01:10:04.639Z,5.32
2023-01-10T01:11:06.275Z,5.32
2023-01-10T01:12:07.950Z,5.35
2023-01-10T01:13:10.828Z,5.35
2023-01-10T01:14:12.092Z,5.32
2023-01-10T01:15:13.326Z,5.30
2023-01-10T01:16:14.657Z,5.30
2023-01-10T01:17:16.999Z,5.29
2023-01-10T01:18:20.231Z,5.31
2023-01-10T01:19:21.416Z,5.28
2023-01-10T01:20:22.859Z,5.28
2023-01-10T01:21:24.545Z,5.26
2023-01-10T01:22:25.808Z,5.25
2023-01-10T01:23:27.069Z,5.23
2023-01-10T01:24:28.523Z,5.23
2023-01-10T01:25:32.752Z,5.23
2023-01-10T01:26:34.368Z,5.22
2023-01-10T01:27:35.598Z,5.28
2023-01-10T01:28:37.917Z,5.26
2023-01-10T01:29:43.362Z,5.21
2023-01-10T01:30:45.140Z,5.20
2023-01-10T01:31:46.445Z,5.20
2023-01-10T01:32:47.837Z,5.16
2023-01-10T01:33:50.567Z,5.20
2023-01-10T01:34:51.814Z,5.19
2023-01-10T01:35:53.046Z,5.23
2023-01-10T01:36:54.335Z,5.26
2023-01-10T01:37:55.872Z,5.32
2023-01-10T01:38:57.140Z,5.34
2023-01-10T01:39:58.380Z,5.34
2023-01-10T01:41:00.045Z,5.32
2023-01-10T01:42:01.598Z,5.35
2023-01-10T01:43:03.016Z,5.38
2023-01-10T01:44:05.740Z,5.40
2023-01-10T01:45:22.391Z,5.39
2023-01-10T01:46:23.700Z,5.42
2023-01-10T01:47:26.623Z,5.44
2023-01-10T01:48:37.770Z,5.47
2023-01-10T01:49:40.595Z,5.50
2023-01-10T01:50:45.352Z,5.51
2023-01-10T01:51:48.806Z,5.55
2023-01-10T01:52:57.609Z,5.52
2023-01-10T01:54:01.422Z,5.49
2023-01-10T01:55:03.512Z,5.52
2023-01-10T01:56:08.712Z,5.51
2023-01-10T01:57:12.786Z,5.52
2023-01-10T01:58:17.648Z,5.54
2023-01-10T01:59:22.257Z,5.52
2023-01-10T02:00:23.651Z,5.52
2023-01-10T02:01:25.324Z,5.51
2023-01-10T02:02:30.780Z,5.52
2023-01-10T02:03:33.164Z,5.50
2023-01-10T02:04:47.230Z,5.46
2023-01-10T02:05:48.991Z,5.46
2023-01-10T02:06:52.291Z,5.44
2023-01-10T02:07:58.234Z,5.40
2023-01-10T02:09:03.465Z,5.41
2023-01-10T02:10:25.029Z,5.39
2023-01-10T02:11:28.737Z,5.36
2023-01-10T02:12:31.890Z,5.35
2023-01-10T02:13:33.659Z,5.34
2023-01-10T02:14:36.180Z,5.40
2023-01-10T02:15:37.516Z,5.34
2023-01-10T02:16:38.977Z,5.36
2023-01-10T02:17:40.578Z,5.40
2023-01-10T02:18:42.705Z,5.37
2023-01-10T02:19:51.432Z,5.37
2023-01-10T02:21:05.270Z,5.40
2023-01-10T02:22:21.703Z,5.42
2023-01-10T02:23:28.931Z,5.35
2023-01-10T02:24:48.647Z,5.33
2023-01-10T02:26:04.239Z,5.33
2023-01-10T02:27:14.824Z,5.28
2023-01-10T02:28:30.108Z,5.27
2023-01-10T02:29:40.288Z,5.30
2023-01-10T02:30:47.618Z,5.28
2023-01-10T02:32:07.886Z,5.27
2023-01-10T02:33:28.750Z,5.35
2023-01-10T02:34:48.625Z,5.34
2023-01-10T02:36:03.168Z,5.29
2023-01-10T02:37:04.535Z,5.36
2023-01-10T02:38:15.223Z,5.28
2023-01-10T02:39:21.568Z,5.26
2023-01-10T02:40:33.909Z,5.25
2023-01-10T02:41:35.120Z,5.24
2023-01-10T02:42:44.233Z,5.20
2023-01-10T02:43:48.879Z,5.26
2023-01-10T02:45:00.212Z,5.25
2023-01-10T02:46:15.580Z,5.23
2023-01-10T02:47:16.888Z,5.19
2023-01-10T02:48:18.703Z,5.22
2023-01-10T02:49:19.888Z,5.23
2023-01-10T02:50:27.757Z,5.25
2023-01-10T02:51:31.207Z,5.23
2023-01-10T02:52:32.779Z,5.23
2023-01-10T02:53:36.705Z,5.20
2023-01-10T02:54:38.089Z,5.17
2023-01-10T02:55:58.240Z,5.17
2023-01-10T02:57:03.066Z,5.16
2023-01-10T02:58:27.359Z,5.14
2023-01-10T02:59:37.547Z,5.26
2023-01-10T03:00:45.217Z,5.17
2023-01-10T03:01:58.929Z,5.15
2023-01-10T03:03:14.440Z,5.12
2023-01-10T03:04:21.790Z,5.12
2023-01-10T03:05:29.899Z,5.14
2023-01-10T03:06:49.805Z,5.13
2023-01-10T03:07:50.956Z,5.08
2023-01-10T03:09:09.359Z,5.07
2023-01-10T03:10:14.526Z,5.06
2023-01-10T03:11:15.836Z,5.09
2023-01-10T03:12:34.432Z,5.10
2023-01-10T03:13:56.337Z,5.09
2023-01-10T03:14:58.967Z,5.05
2023-01-10T03:16:02.231Z,5.03
2023-01-10T03:17:06.974Z,5.09
2023-01-10T03:18:11.661Z,5.13
2023-01-10T03:19:15.553Z,5.07
2023-01-10T03:20:18.725Z,5.09
2023-01-10T03:21:21.466Z,5.07
2023-01-10T03:22:24.320Z,5.06
2023-01-10T03:23:26.575Z,5.01
2023-01-10T03:24:36.659Z,5.02
2023-01-10T03:25:39.053Z,5.02
2023-01-10T03:26:50.131Z,5.04
2023-01-10T03:28:05.264Z,5.05
2023-01-10T03:29:08.713Z,5.05
2023-01-10T03:30:17.089Z,5.04
2023-01-10T03:31:40.100Z,5.04
2023-01-10T03:32:41.462Z,5.03
2023-01-10T03:33:42.873Z,5.06
2023-01-10T03:34:44.658Z,5.02
2023-01-10T03:36:03.711Z,5.04
2023-01-10T03:37:04.996Z,5.04
2023-01-10T03:38:14.863Z,5.03
2023-01-10T03:39:37.817Z,5.05
2023-01-10T03:40:43.467Z,5.05
2023-01-10T03:41:44.878Z,5.02
2023-01-10T03:43:09.396Z,5.00
2023-01-10T03:44:19.431Z,4.99
2023-01-10T03:45:24.530Z,4.98
2023-01-10T03:46:33.871Z,4.99
2023-01-10T03:47:47.236Z,5.01
2023-01-10T03:48:51.427Z,5.02
2023-01-10T03:49:58.263Z,5.02
2023-01-10T03:51:00.616Z,5.01
2023-01-10T03:52:02.264Z,4.98
2023-01-10T03:53:03.548Z,4.97
2023-01-10T03:54:05.036Z,4.97
2023-01-10T03:55:10.018Z,4.97
2023-01-10T03:56:14.871Z,4.94
2023-01-10T03:57:20.862Z,4.93
2023-01-10T03:58:22.083Z,4.91
2023-01-10T03:59:25.577Z,4.91
2023-01-10T04:00:27.411Z,4.88
2023-01-10T04:01:28.802Z,4.85
2023-01-10T04:02:30.946Z,4.82
2023-01-10T04:03:32.645Z,4.83
2023-01-10T04:04:34.077Z,4.84
2023-01-10T04:05:35.839Z,4.81
2023-01-10T04:06:37.615Z,4.76
2023-01-10T04:07:39.080Z,4.71
2023-01-10T04:08:40.614Z,4.69
2023-01-10T04:09:42.006Z,4.70
2023-01-10T04:10:44.751Z,4.69
2023-01-10T04:11:45.959Z,4.62
2023-01-10T04:12:47.341Z,4.61
2023-01-10T04:13:48.519Z,4.57
2023-01-10T04:14:49.781Z,4.57
2023-01-10T04:15:51.068Z,4.56
2023-01-10T04:16:52.258Z,4.54
2023-01-10T04:17:53.672Z,4.50
2023-01-10T04:18:54.951Z,4.50
2023-01-10T04:19:56.194Z,4.49
2023-01-10T04:20:57.496Z,4.52
2023-01-10T04:21:59.172Z,4.55
2023-01-10T04:23:02.722Z,4.54
2023-01-10T04:24:05.085Z,4.54
2023-01-10T04:25:06.729Z,4.56
2023-01-10T04:26:07.942Z,4.56
2023-01-10T04:27:09.579Z,4.58
2023-01-10T04:28:13.111Z,4.59
2023-01-10T04:29:15.446Z,4.60
2023-01-10T04:30:19.243Z,4.62
2023-01-10T04:31:20.543Z,4.57
2023-01-10T04:32:22.011Z,4.56
2023-01-10T04:33:23.342Z,4.50
2023-01-10T04:34:24.680Z,4.47
2023-01-10T04:35:26.175Z,4.46
2023-01-10T04:36:27.493Z,4.42
2023-01-10T04:37:28.682Z,4.41
2023-01-10T04:38:29.977Z,4.37
2023-01-10T04:39:31.404Z,4.40
2023-01-10T04:40:32.867Z,4.39
2023-01-10T04:41:36.618Z,4.34
2023-01-10T04:42:37.859Z,4.32
2023-01-10T04:43:39.162Z,4.35
2023-01-10T04:44:40.480Z,4.35
2023-01-10T04:45:43.194Z,4.41
2023-01-10T04:46:45.471Z,4.41
2023-01-10T04:47:52.039Z,4.42
2023-01-10T04:48:53.284Z,4.41
2023-01-10T04:49:54.528Z,4.42
2023-01-10T04:50:55.999Z,4.42
2023-01-10T04:51:57.525Z,4.44
2023-01-10T04:52:58.741Z,4.48
2023-01-10T04:53:59.995Z,4.51
2023-01-10T04:55:01.261Z,4.49
2023-01-10T04:56:03.751Z,4.45
2023-01-10T04:57:05.091Z,4.46
2023-01-10T04:58:06.517Z,4.46
2023-01-10T04:59:09.711Z,4.48
2023-01-10T05:00:11.539Z,4.47
2023-01-10T05:01:14.203Z,4.50
2023-01-10T05:02:16.426Z,4.50
2023-01-10T05:03:17.956Z,4.53
2023-01-10T05:04:21.022Z,4.54
2023-01-10T05:05:22.798Z,4.56
2023-01-10T05:06:24.430Z,4.58
2023-01-10T05:07:25.659Z,4.61
2023-01-10T05:08:26.839Z,4.60
2023-01-10T05:09:28.137Z,4.74
2023-01-10T05:10:29.402Z,4.69
2023-01-10T05:11:30.966Z,4.66
2023-01-10T05:12:32.329Z,4.63
2023-01-10T05:13:38.325Z,4.63
2023-01-10T05:14:40.033Z,4.63
2023-01-10T05:15:41.470Z,4.61
2023-01-10T05:16:43.834Z,4.62
2023-01-10T05:17:45.505Z,4.62
2023-01-10T05:18:46.809Z,4.62
2023-01-10T05:19:48.105Z,4.64
2023-01-10T05:20:50.048Z,4.68
2023-01-10T05:21:51.582Z,4.70
2023-01-10T05:22:53.372Z,4.67
2023-01-10T05:23:55.501Z,4.68
2023-01-10T05:25:00.415Z,4.70
2023-01-10T05:26:08.964Z,4.71
2023-01-10T05:27:10.243Z,4.71
2023-01-10T05:28:11.715Z,4.73
2023-01-10T05:29:13.231Z,4.76
2023-01-10T05:30:14.953Z,4.74
2023-01-10T05:31:19.359Z,4.76
2023-01-10T05:32:20.865Z,4.81
2023-01-10T05:33:23.955Z,4.78
2023-01-10T05:34:26.767Z,4.77
2023-01-10T05:35:28.340Z,4.74
2023-01-10T05:36:29.597Z,4.79
2023-01-10T05:37:30.896Z,4.91
2023-01-10T05:38:33.797Z,4.88
2023-01-10T05:39:36.157Z,4.86
2023-01-10T05:40:37.527Z,4.88
2023-01-10T05:41:38.793Z,4.84
2023-01-10T05:42:44.644Z,4.82
2023-01-10T05:43:46.053Z,4.78
2023-01-10T05:44:49.231Z,4.88
2023-01-10T05:45:50.546Z,4.87
2023-01-10T05:46:51.875Z,4.82
2023-01-10T05:47:53.351Z,4.80
2023-01-10T05:48:55.598Z,4.88
2023-01-10T05:49:56.976Z,4.89
2023-01-10T05:50:58.249Z,4.90
2023-01-10T05:51:59.675Z,4.86
2023-01-10T05:53:03.813Z,4.85
2023-01-10T05:54:05.247Z,4.82
2023-01-10T05:55:06.854Z,4.85
2023-01-10T05:56:11.281Z,4.84
2023-01-10T05:57:13.151Z,4.83
2023-01-10T05:58:15.467Z,4.82
2023-01-10T05:59:27.479Z,4.80
2023-01-10T06:00:36.811Z,4.84
2023-01-10T06:01:41.243Z,4.82
2023-01-10T06:02:42.695Z,4.83
2023-01-10T06:03:44.249Z,4.90
2023-01-10T06:04:45.819Z,4.86
2023-01-10T06:05:48.829Z,4.88
2023-01-10T06:06:53.079Z,4.86
2023-01-10T06:07:54.462Z,4.86
2023-01-10T06:08:55.732Z,4.85
2023-01-10T06:09:57.019Z,4.81
2023-01-10T06:10:58.579Z,4.79
2023-01-10T06:11:59.859Z,4.83
2023-01-10T06:13:03.610Z,4.84
2023-01-10T06:14:05.492Z,4.82
2023-01-10T06:15:11.056Z,4.79
2023-01-10T06:16:12.414Z,4.82
2023-01-10T06:17:15.850Z,4.80
2023-01-10T06:18:17.807Z,4.82
2023-01-10T06:19:20.444Z,4.81
2023-01-10T06:20:22.695Z,4.82
2023-01-10T06:21:24.142Z,4.82
2023-01-10T06:22:25.415Z,4.81
2023-01-10T06:23:26.945Z,4.80
2023-01-10T06:24:28.363Z,4.88
2023-01-10T06:25:33.555Z,4.85
2023-01-10T06:26:35.098Z,4.83
2023-01-10T06:27:43.674Z,4.82
2023-01-10T06:28:45.007Z,4.80
2023-01-10T06:29:46.391Z,4.78
2023-01-10T06:30:47.704Z,4.77
2023-01-10T06:31:48.998Z,4.72
2023-01-10T06:32:51.267Z,4.70
2023-01-10T06:33:53.369Z,4.69
2023-01-10T06:34:55.627Z,4.69
2023-01-10T06:35:58.327Z,4.70
2023-01-10T06:36:59.653Z,4.67
2023-01-10T06:38:00.939Z,4.69
2023-01-10T06:39:02.916Z,4.66
2023-01-10T06:40:04.663Z,4.65
2023-01-10T06:41:06.973Z,4.65
2023-01-10T06:42:09.701Z,4.62
2023-01-10T06:43:11.051Z,4.62
2023-01-10T06:44:12.262Z,4.60
2023-01-10T06:45:14.925Z,4.61
2023-01-10T06:46:19.579Z,4.61
2023-01-10T06:47:21.273Z,4.62
2023-01-10T06:48:25.801Z,4.64
2023-01-10T06:49:28.563Z,4.66
2023-01-10T06:50:31.617Z,4.66
2023-01-10T06:51:33.154Z,4.69
2023-01-10T06:52:34.405Z,4.67
2023-01-10T06:53:35.705Z,4.66
2023-01-10T06:54:39.033Z,4.65
2023-01-10T06:55:40.352Z,4.62
2023-01-10T06:56:41.882Z,4.60
2023-01-10T06:57:43.181Z,4.60
2023-01-10T06:58:44.448Z,4.57
2023-01-10T06:59:45.792Z,4.60
2023-01-10T07:00:47.332Z,4.61
2023-01-10T07:02:05.058Z,4.65
2023-01-10T07:03:07.392Z,4.66
2023-01-10T07:04:11.375Z,4.72
2023-01-10T07:05:12.957Z,4.72
2023-01-10T07:06:15.579Z,4.72
2023-01-10T07:07:16.875Z,4.74
2023-01-10T07:08:19.521Z,4.82
2023-01-10T07:09:20.751Z,4.78
2023-01-10T07:10:22.130Z,4.75
2023-01-10T07:11:24.098Z,4.73
2023-01-10T07:12:26.788Z,4.79
2023-01-10T07:13:28.145Z,4.83
2023-01-10T07:14:30.023Z,4.82
2023-01-10T07:15:32.537Z,4.83
2023-01-10T07:16:33.841Z,4.83
2023-01-10T07:17:35.417Z,4.85
2023-01-10T07:18:37.489Z,4.83
2023-01-10T07:19:38.736Z,4.86
2023-01-10T07:20:40.445Z,4.84
2023-01-10T07:21:43.891Z,4.87
2023-01-10T07:22:53.244Z,4.86
2023-01-10T07:23:55.574Z,4.86
2023-01-10T07:24:56.966Z,4.90
2023-01-10T07:26:06.288Z,4.88
2023-01-10T07:27:07.815Z,4.87
2023-01-10T07:28:09.083Z,4.90
2023-01-10T07:29:10.374Z,4.87
2023-01-10T07:30:12.283Z,4.88
2023-01-10T07:31:13.768Z,4.86
2023-01-10T07:32:16.070Z,4.86
2023-01-10T07:33:17.524Z,4.88
2023-01-10T07:34:21.531Z,4.89
2023-01-10T07:35:24.304Z,4.93
2023-01-10T07:36:25.735Z,4.92
2023-01-10T07:37:29.739Z,4.89
2023-01-10T07:38:33.222Z,4.89
2023-01-10T07:39:34.477Z,4.90
2023-01-10T07:40:35.762Z,4.92
2023-01-10T07:41:38.966Z,4.92
2023-01-10T07:42:40.189Z,4.92
2023-01-10T07:43:44.020Z,4.93
2023-01-10T07:44:49.493Z,4.96
2023-01-10T07:45:52.566Z,4.96
2023-01-10T07:46:53.837Z,4.94
2023-01-10T07:48:01.675Z,4.94
2023-01-10T07:49:04.554Z,5.00
2023-01-10T07:50:08.184Z,5.03
2023-01-10T07:51:09.697Z,5.01
2023-01-10T07:52:10.966Z,5.02
2023-01-10T07:53:12.335Z,5.01
2023-01-10T07:54:14.859Z,5.00
2023-01-10T07:55:18.782Z,5.04
2023-01-10T07:56:20.278Z,5.06
2023-01-10T07:57:22.299Z,5.06
2023-01-10T07:58:23.734Z,5.05
2023-01-10T07:59:25.057Z,5.03
2023-01-10T08:00:26.365Z,5.02
2023-01-10T08:01:28.789Z,5.02
2023-01-10T08:02:30.191Z,5.02
2023-01-10T08:03:33.213Z,5.02
2023-01-10T08:04:36.804Z,5.01
2023-01-10T08:05:38.745Z,5.01
2023-01-10T08:06:41.315Z,5.02
2023-01-10T08:07:42.515Z,5.08
2023-01-10T08:08:44.299Z,5.09
2023-01-10T08:09:47.734Z,5.05
2023-01-10T08:10:48.962Z,5.06
2023-01-10T08:11:50.345Z,5.09
2023-01-10T08:12:54.940Z,5.11
2023-01-10T08:13:56.679Z,5.11
2023-01-10T08:15:00.611Z,5.12
2023-01-10T08:17:54.985Z,5.15
2023-01-10T08:18:57.223Z,5.15
2023-01-10T08:19:58.625Z,5.15
2023-01-10T08:21:01.336Z,5.16
2023-01-10T08:22:02.683Z,5.17
2023-01-10T08:24:19.285Z,5.24
2023-01-10T08:25:22.034Z,5.27
2023-01-10T08:26:23.408Z,5.26
2023-01-10T08:27:26.443Z,5.29
2023-01-10T08:28:28.074Z,5.32
2023-01-10T08:29:30.806Z,5.30
2023-01-10T08:30:33.735Z,5.33
2023-01-10T08:31:35.340Z,5.36
2023-01-10T08:32:38.479Z,5.36
2023-01-10T08:33:40.624Z,5.43
2023-01-10T08:34:43.301Z,5.45
2023-01-10T08:35:52.046Z,5.44
2023-01-10T08:36:54.113Z,5.43
2023-01-10T08:38:00.011Z,5.45
2023-01-10T08:40:20.245Z,5.45
2023-01-10T08:41:22.469Z,5.47
2023-01-10T08:42:23.710Z,5.47
2023-01-10T08:43:24.995Z,5.49
2023-01-10T08:44:26.455Z,5.48
2023-01-10T08:45:27.969Z,5.50
2023-01-10T08:46:29.293Z,5.52
2023-01-10T08:47:30.636Z,5.55
2023-01-10T08:48:34.215Z,5.59
2023-01-10T08:49:37.455Z,5.58
2023-01-10T08:50:38.979Z,5.62
2023-01-10T08:51:40.311Z,5.66
2023-01-10T08:52:44.418Z,5.69
2023-01-10T08:53:45.719Z,5.64
2023-01-10T08:54:47.358Z,5.65
2023-01-10T08:55:48.882Z,5.63
2023-01-10T08:56:51.353Z,5.64
2023-01-10T08:59:08.229Z,5.67
2023-01-10T09:01:25.510Z,5.72
2023-01-10T09:02:27.026Z,5.71
2023-01-10T09:03:31.480Z,5.72
2023-01-10T09:04:33.145Z,5.72
2023-01-10T09:05:34.490Z,5.73
2023-01-10T09:06:36.436Z,5.75
2023-01-10T09:07:39.284Z,5.72
2023-01-10T09:08:40.673Z,5.76
2023-01-10T09:09:43.358Z,5.79
2023-01-10T09:10:44.749Z,5.74
2023-01-10T09:11:47.120Z,5.73
2023-01-10T09:12:48.418Z,5.76
2023-01-10T09:13:50.362Z,5.77
2023-01-10T09:14:51.659Z,5.81
2023-01-10T09:15:53.300Z,5.81
2023-01-10T09:16:54.828Z,5.82
2023-01-10T09:17:56.916Z,5.82
2023-01-10T09:18:58.236Z,5.81
2023-01-10T09:20:02.902Z,5.84
2023-01-10T09:21:12.014Z,5.86
2023-01-10T09:22:13.436Z,5.85
2023-01-10T09:23:16.117Z,5.83
2023-01-10T09:24:17.411Z,5.81
2023-01-10T09:25:18.687Z,5.85
2023-01-10T09:26:20.384Z,5.83
2023-01-10T09:27:21.580Z,5.87
2023-01-10T09:28:23.695Z,5.87
2023-01-10T09:29:28.274Z,5.87
2023-01-10T09:30:33.865Z,5.89
2023-01-10T09:31:38.646Z,5.89
2023-01-10T09:32:42.025Z,5.90
2023-01-10T09:33:47.486Z,5.89
2023-01-10T09:34:48.996Z,5.91
2023-01-10T09:35:50.255Z,5.92
2023-01-10T09:36:54.642Z,5.95
2023-01-10T09:37:57.401Z,5.93
2023-01-10T09:38:58.649Z,5.94
2023-01-10T09:39:59.902Z,5.94
2023-01-10T09:41:20.178Z,5.94
2023-01-10T09:42:37.407Z,5.95
2023-01-10T09:43:57.460Z,5.95
2023-01-10T09:45:18.303Z,5.97
2023-01-10T09:46:39.347Z,5.97
2023-01-10T09:48:03.072Z,5.99
2023-01-10T09:49:23.710Z,5.99
2023-01-10T09:53:26.745Z,6.00
2023-01-10T09:54:33.458Z,6.00
2023-01-10T09:55:36.474Z,6.01
2023-01-10T09:56:38.593Z,6.00
2023-01-10T09:57:39.853Z,6.00
2023-01-10T10:01:18.402Z,6.05
2023-01-10T10:02:20.710Z,6.08
2023-01-10T10:03:31.246Z,6.12
2023-01-10T10:04:36.843Z,6.13
2023-01-10T10:05:39.437Z,6.10
2023-01-10T10:06:40.850Z,6.11
2023-01-10T10:07:42.583Z,6.11
2023-01-10T10:08:45.237Z,6.13
2023-01-10T10:09:46.478Z,6.18
2023-01-10T10:11:06.451Z,6.19
2023-01-10T10:12:33.530Z,6.23
2023-01-10T10:13:48.425Z,6.25
2023-01-10T10:14:49.672Z,6.31
2023-01-10T10:16:01.991Z,6.32
2023-01-10T10:17:22.220Z,6.31
2023-01-10T10:18:32.432Z,6.36
2023-01-10T10:19:57.160Z,6.37
2023-01-10T10:20:58.440Z,6.37
2023-01-10T10:22:02.929Z,6.36
2023-01-10T10:23:20.252Z,6.39
2023-01-10T10:27:27.623Z,6.48
2023-01-10T10:31:50.170Z,6.64
2023-01-10T10:37:16.508Z,6.73
2023-01-10T10:38:30.359Z,6.74
2023-01-10T10:39:48.143Z,6.73
2023-01-10T10:40:51.109Z,6.69
2023-01-10T10:41:56.367Z,6.68
2023-01-10T10:42:59.219Z,6.70
2023-01-10T10:44:02.506Z,6.69
2023-01-10T10:45:06.779Z,6.68
2023-01-10T10:46:12.903Z,6.70
2023-01-10T10:47:15.961Z,6.74
2023-01-10T10:48:33.961Z,6.75
2023-01-10T10:49:38.045Z,6.77
2023-01-10T10:51:00.237Z,6.77
2023-01-10T10:52:03.541Z,6.82
2023-01-10T10:53:12.907Z,6.85
2023-01-10T10:54:18.067Z,6.85
2023-01-10T10:55:21.621Z,6.88
2023-01-10T10:56:24.432Z,6.92
2023-01-10T10:57:27.989Z,6.96
2023-01-10T10:58:31.495Z,6.96
2023-01-10T11:03:41.312Z,7.00
2023-01-10T11:04:42.693Z,7.02
2023-01-10T11:05:45.588Z,7.03
2023-01-10T11:06:46.989Z,7.05
2023-01-10T11:07:48.763Z,7.05
2023-01-10T11:08:53.402Z,7.12
2023-01-10T11:09:57.061Z,7.13
2023-01-10T11:10:59.533Z,7.12
2023-01-10T11:12:10.727Z,7.16
2023-01-10T11:13:11.924Z,7.17
2023-01-10T11:14:36.160Z,7.17
2023-01-10T11:15:44.488Z,7.16
2023-01-10T11:16:47.409Z,7.17
2023-01-10T11:18:03.055Z,7.19
2023-01-10T11:19:13.262Z,7.13
2023-01-10T11:23:32.007Z,7.22
2023-01-10T11:24:39.305Z,7.22
2023-01-10T11:25:46.794Z,7.26
2023-01-10T11:26:48.718Z,7.23
2023-01-10T11:27:52.019Z,7.22
2023-01-10T11:30:26.219Z,7.23
2023-01-10T11:31:31.200Z,7.23
2023-01-10T11:32:37.304Z,7.20
2023-01-10T11:33:38.994Z,7.17
2023-01-10T11:34:49.223Z,7.15
2023-01-10T11:36:01.538Z,7.15
2023-01-10T11:37:05.182Z,7.12
2023-01-10T11:38:20.273Z,7.11
2023-01-10T11:39:30.627Z,7.09
2023-01-10T11:40:33.947Z,7.09
2023-01-10T11:41:35.213Z,7.10
2023-01-10T11:42:39.371Z,7.12
2023-01-10T11:43:43.559Z,7.10
2023-01-10T11:44:44.847Z,7.11
2023-01-10T11:45:58.494Z,7.08
2023-01-10T11:47:06.419Z,7.11
2023-01-10T11:49:42.662Z,7.21
2023-01-10T11:52:10.343Z,7.16
2023-01-10T11:54:49.695Z,7.12
2023-01-10T11:55:54.511Z,7.15
2023-01-10T11:56:56.012Z,7.13
2023-01-10T11:58:02.725Z,7.13
2023-01-10T11:59:09.466Z,7.13
2023-01-10T12:00:11.725Z,7.13
2023-01-10T12:01:29.911Z,7.18
2023-01-10T12:02:35.661Z,7.21
2023-01-10T12:03:38.475Z,7.28
2023-01-10T12:04:44.167Z,7.28
2023-01-10T12:06:00.187Z,7.29
2023-01-10T12:07:09.318Z,7.29
2023-01-10T12:09:41.038Z,7.17
2023-01-10T12:11:00.234Z,7.14
2023-01-10T12:12:04.351Z,7.16
2023-01-10T12:13:18.371Z,7.18
2023-01-10T12:14:22.447Z,7.18
2023-01-10T12:15:35.028Z,7.17
2023-01-10T12:16:38.227Z,7.16
2023-01-10T12:35:30.574Z,7.56
2023-01-10T12:38:12.547Z,7.60
2023-01-10T12:41:06.880Z,7.64
2023-01-10T12:42:08.399Z,7.61
2023-01-10T12:43:21.667Z,7.62
2023-01-10T12:44:25.537Z,7.65
2023-01-10T12:45:31.800Z,7.68
2023-01-10T12:47:04.644Z,7.69
2023-01-10T12:48:18.131Z,7.69
2023-01-10T12:49:45.182Z,7.71
2023-01-10T12:50:50.538Z,7.72
2023-01-10T12:51:53.156Z,7.69
2023-01-10T12:53:00.046Z,7.69
2023-01-10T12:54:05.408Z,7.69
2023-01-10T12:55:12.321Z,7.68
2023-01-10T12:56:17.422Z,7.64
2023-01-10T12:57:52.242Z,7.68
2023-01-10T12:58:56.506Z,7.69
2023-01-10T13:00:01.236Z,7.71
2023-01-10T13:01:03.233Z,7.72
2023-01-10T13:02:06.371Z,7.73
2023-01-10T13:03:12.643Z,7.72
2023-01-10T13:04:20.511Z,7.71
2023-01-10T13:05:23.535Z,7.73
2023-01-10T13:06:30.240Z,7.76
2023-01-10T13:07:34.040Z,7.74
2023-01-10T13:08:36.502Z,7.74
2023-01-10T13:09:38.101Z,7.73
2023-01-10T13:10:44.992Z,7.73
2023-01-10T13:11:55.326Z,7.78
2023-01-10T13:12:59.558Z,7.76
2023-01-10T13:14:05.172Z,7.73
2023-01-10T13:15:06.627Z,7.75
2023-01-10T13:16:16.783Z,7.75
2023-01-10T13:17:30.222Z,7.77
2023-01-10T13:18:32.409Z,7.82
2023-01-10T13:19:34.015Z,7.81
2023-01-10T13:20:37.515Z,7.79
2023-01-10T13:21:39.963Z,7.79
2023-01-10T13:22:47.751Z,7.81
2023-01-10T13:24:02.555Z,7.78
2023-01-10T13:25:06.303Z,7.78
2023-01-10T13:26:10.993Z,7.81
2023-01-10T13:27:21.576Z,7.82
2023-01-10T13:28:26.606Z,7.84
2023-01-10T13:29:29.594Z,7.84
2023-01-10T13:30:38.528Z,7.89
2023-01-10T13:31:39.943Z,7.86
2023-01-10T13:32:41.425Z,7.85
2023-01-10T13:33:45.817Z,7.84
2023-01-10T13:34:47.389Z,7.85
2023-01-10T13:35:54.070Z,7.85
2023-01-10T13:36:57.274Z,7.86
2023-01-10T13:38:08.055Z,7.92
2023-01-10T13:39:27.970Z,7.88
2023-01-10T13:40:30.193Z,7.91
2023-01-10T13:41:53.108Z,7.85
2023-01-10T13:43:15.147Z,7.86
2023-01-10T13:44:18.599Z,7.79
2023-01-10T13:45:21.671Z,7.80
2023-01-10T13:46:26.227Z,7.85
2023-01-10T13:47:48.276Z,7.81
2023-01-10T13:48:49.964Z,7.80
2023-01-10T13:49:54.888Z,7.79
2023-01-10T13:51:06.372Z,7.80
2023-01-10T13:52:21.048Z,7.78
2023-01-10T13:53:42.705Z,7.77
2023-01-10T13:54:55.611Z,7.76
2023-01-10T13:55:57.072Z,7.75
2023-01-10T13:56:58.332Z,7.75
2023-01-10T13:58:03.741Z,7.79
2023-01-10T13:59:11.407Z,7.79
2023-01-10T14:00:21.133Z,7.79
2023-01-10T14:01:33.743Z,7.80
2023-01-10T14:02:44.299Z,7.76
2023-01-10T14:03:59.279Z,7.83
2023-01-10T14:05:08.543Z,7.85
2023-01-10T14:06:18.769Z,7.83
2023-01-10T14:07:29.309Z,7.80
2023-01-10T14:08:31.918Z,7.83
2023-01-10T14:09:36.597Z,7.82
2023-01-10T14:10:38.867Z,7.81
2023-01-10T14:11:43.050Z,7.79
2023-01-10T14:12:55.903Z,7.79
2023-01-10T14:13:59.084Z,7.75
2023-01-10T14:15:02.454Z,7.76
2023-01-10T14:16:06.727Z,7.75
2023-01-10T14:17:28.203Z,7.76
2023-01-10T14:18:34.619Z,7.75
2023-01-10T14:19:36.771Z,7.75
2023-01-10T14:20:39.212Z,7.74
2023-01-10T14:21:45.551Z,7.74
2023-01-10T14:23:01.135Z,7.73
2023-01-10T14:24:02.724Z,7.72
2023-01-10T14:25:05.896Z,7.73
2023-01-10T14:26:14.709Z,7.71
2023-01-10T14:27:17.663Z,7.73
2023-01-10T14:28:24.585Z,7.71
2023-01-10T14:29:28.241Z,7.65
2023-01-10T14:30:39.267Z,7.63
2023-01-10T14:31:45.296Z,7.58
2023-01-10T14:32:48.375Z,7.54
2023-01-10T14:33:50.071Z,7.52
2023-01-10T14:34:51.749Z,7.50
2023-01-10T14:35:55.900Z,7.56
2023-01-10T14:37:08.595Z,7.50
2023-01-10T14:38:16.524Z,7.44
2023-01-10T14:39:18.661Z,7.37
2023-01-10T14:40:28.797Z,7.36
2023-01-10T14:41:32.910Z,7.32
2023-01-10T14:42:35.354Z,7.27
2023-01-10T14:43:43.172Z,7.28
2023-01-10T14:45:14.632Z,7.24
2023-01-10T14:46:20.166Z,7.20
2023-01-10T14:47:31.814Z,7.20
2023-01-10T14:48:40.951Z,7.18
2023-01-10T14:49:49.500Z,7.18
2023-01-10T14:50:51.113Z,7.15
2023-01-10T14:51:55.155Z,7.13
2023-01-10T14:52:57.415Z,7.11
2023-01-10T14:54:00.423Z,7.07
2023-01-10T14:55:01.811Z,7.04
2023-01-10T14:56:03.174Z,7.04
2023-01-10T14:57:16.059Z,7.02
2023-01-10T14:58:17.791Z,7.00
2023-01-10T14:59:25.078Z,6.99
2023-01-10T15:00:33.268Z,6.93
2023-01-10T15:01:34.814Z,6.92
2023-01-10T15:02:39.388Z,6.90
2023-01-10T15:03:46.012Z,6.86
2023-01-10T15:04:52.107Z,6.83
2023-01-10T15:05:56.887Z,6.79
2023-01-10T15:06:58.233Z,6.77
2023-01-10T15:08:18.328Z,6.73
2023-01-10T15:09:20.920Z,6.74
2023-01-10T15:10:31.418Z,6.75
2023-01-10T15:11:32.840Z,6.74
2023-01-10T15:12:35.155Z,6.73
2023-01-10T15:13:41.133Z,6.72
2023-01-10T15:14:42.936Z,6.69
2023-01-10T15:15:46.695Z,6.65
2023-01-10T15:16:49.759Z,6.63
2023-01-10T15:17:51.206Z,6.60
2023-01-10T15:18:53.237Z,6.59
2023-01-10T15:19:55.516Z,6.56